This is the latest recevied weather packets stored in our database for station/object HS1AXC-1. If no packets are shown the sender has not sent any weather packets the latest 10 day(s).
| Time | Temp. | Humidity | Pressure | Rain* | Wind** | Luminosity | Snow |
|---|---|---|---|---|---|---|---|
| 1777897849 | 31.11° C | 85% | 1009 hPa | - | - | 0 W/m² | - |
| 1777897227 | 31.11° C | 86% | 1009 hPa | - | - | 0 W/m² | - |
| 1777896605 | 31.11° C | 85% | 1008 hPa | - | - | 0 W/m² | - |
| 1777895983 | 31.11° C | 88% | 1008 hPa | - | - | 0 W/m² | - |
| 1777895361 | 31.11° C | 89% | 1008 hPa | - | - | 0 W/m² | - |
| 1777894739 | 31.67° C | 89% | 1008 hPa | - | - | 0 W/m² | - |
| 1777894116 | 31.11° C | 89% | 1007 hPa | - | - | 0 W/m² | - |
| 1777893494 | 31.67° C | 85% | 1006 hPa | - | - | 0 W/m² | - |
| 1777892872 | 31.11° C | 84% | 1006 hPa | - | - | 0 W/m² | - |
| 1777892250 | 30.56° C | 84% | 1006 hPa | - | - | 0 W/m² | - |
| 1777891628 | 31.11° C | 85% | 1007 hPa | - | - | 0 W/m² | - |
| 1777891317 | 30.56° C | 84% | 1007 hPa | - | - | 0 W/m² | - |
| 1777890531 | 30.56° C | 90% | 1008 hPa | - | - | 0 W/m² | - |
| 1777889909 | 30.56° C | 89% | 1008 hPa | - | - | 0 W/m² | - |
| 1777889287 | 31.67° C | 78% | 1009 hPa | - | - | 0 W/m² | - |
| 1777888796 | 30.56° C | 85% | 1009 hPa | - | - | 0 W/m² | - |
| 1777888174 | 31.11° C | 78% | 1009 hPa | - | - | 0 W/m² | - |
| 1777887552 | 32.22° C | 82% | 1008 hPa | - | - | 0 W/m² | - |
| 1777886930 | 32.22° C | 92% | 1008 hPa | - | - | 0 W/m² | - |
| 1777886308 | 33.33° C | 87% | 1008 hPa | - | - | 0 W/m² | - |
| 1777885686 | 33.89° C | 89% | 1007 hPa | - | - | 0 W/m² | - |
| 1777885064 | 33.89° C | 90% | 1006 hPa | - | - | 0 W/m² | - |
| 1777884442 | 33.89° C | 87% | 1007 hPa | - | - | 0 W/m² | - |
| 1777883729 | 35° C | 77% | 1007 hPa | - | - | 0 W/m² | - |
| 1777883107 | 36.11° C | 68% | 1007 hPa | - | - | 0 W/m² | - |
* Rain since midnight (hover to see other rain measurements)
** Current wind speed in m/s (hover to see current wind gust speed)